sensor_id;sensor_type;location;lat;lon;timestamp;P1;durP1;ratioP1;P2;durP2;ratioP2
67092;SDS011;54011;50.772;7.730;2023-04-03T00:02:21;5.60;;;1.73;;
67092;SDS011;54011;50.772;7.730;2023-04-03T00:04:50;4.55;;;1.65;;
67092;SDS011;54011;50.772;7.730;2023-04-03T00:07:16;5.63;;;1.63;;
67092;SDS011;54011;50.772;7.730;2023-04-03T00:09:41;3.42;;;1.67;;
67092;SDS011;54011;50.772;7.730;2023-04-03T00:12:07;6.97;;;1.80;;
67092;SDS011;54011;50.772;7.730;2023-04-03T00:14:32;3.70;;;1.92;;
67092;SDS011;54011;50.772;7.730;2023-04-03T00:16:59;3.85;;;1.55;;
67092;SDS011;54011;50.772;7.730;2023-04-03T00:19:26;4.50;;;1.73;;
67092;SDS011;54011;50.772;7.730;2023-04-03T00:21:53;5.25;;;1.65;;
67092;SDS011;54011;50.772;7.730;2023-04-03T00:24:22;6.28;;;2.03;;
67092;SDS011;54011;50.772;7.730;2023-04-03T00:26:48;6.38;;;2.42;;
67092;SDS011;54011;50.772;7.730;2023-04-03T00:29:13;8.07;;;2.90;;
67092;SDS011;54011;50.772;7.730;2023-04-03T00:31:41;12.85;;;2.60;;
67092;SDS011;54011;50.772;7.730;2023-04-03T00:34:06;8.82;;;3.42;;
67092;SDS011;54011;50.772;7.730;2023-04-03T00:36:32;7.38;;;2.97;;
67092;SDS011;54011;50.772;7.730;2023-04-03T00:38:59;11.48;;;3.40;;
67092;SDS011;54011;50.772;7.730;2023-04-03T00:41:26;10.20;;;3.30;;
67092;SDS011;54011;50.772;7.730;2023-04-03T00:43:51;6.65;;;2.72;;
67092;SDS011;54011;50.772;7.730;2023-04-03T00:46:19;8.27;;;3.33;;
67092;SDS011;54011;50.772;7.730;2023-04-03T00:48:45;8.35;;;2.78;;
67092;SDS011;54011;50.772;7.730;2023-04-03T00:51:23;6.03;;;2.47;;
67092;SDS011;54011;50.772;7.730;2023-04-03T00:53:50;6.70;;;2.67;;
67092;SDS011;54011;50.772;7.730;2023-04-03T00:56:23;6.93;;;2.50;;
67092;SDS011;54011;50.772;7.730;2023-04-03T00:58:59;5.32;;;2.25;;
67092;SDS011;54011;50.772;7.730;2023-04-03T01:01:29;6.13;;;2.58;;
67092;SDS011;54011;50.772;7.730;2023-04-03T01:03:55;7.45;;;2.40;;
67092;SDS011;54011;50.772;7.730;2023-04-03T01:06:24;4.72;;;2.20;;
67092;SDS011;54011;50.772;7.730;2023-04-03T01:08:52;4.35;;;1.80;;
67092;SDS011;54011;50.772;7.730;2023-04-03T01:11:20;7.28;;;2.30;;
67092;SDS011;54011;50.772;7.730;2023-04-03T01:13:46;6.65;;;2.17;;
67092;SDS011;54011;50.772;7.730;2023-04-03T01:16:20;8.00;;;1.90;;
67092;SDS011;54011;50.772;7.730;2023-04-03T01:18:47;6.80;;;2.20;;
67092;SDS011;54011;50.772;7.730;2023-04-03T01:26:54;6.20;;;2.03;;
67092;SDS011;54011;50.772;7.730;2023-04-03T01:29:21;4.85;;;1.73;;
67092;SDS011;54011;50.772;7.730;2023-04-03T01:31:54;6.35;;;1.70;;
67092;SDS011;54011;50.772;7.730;2023-04-03T01:34:24;4.25;;;1.70;;
67092;SDS011;54011;50.772;7.730;2023-04-03T01:36:52;5.60;;;1.70;;
67092;SDS011;54011;50.772;7.730;2023-04-03T01:39:18;4.28;;;2.00;;
67092;SDS011;54011;50.772;7.730;2023-04-03T01:41:45;5.45;;;2.20;;
67092;SDS011;54011;50.772;7.730;2023-04-03T01:44:31;3.45;;;1.58;;
67092;SDS011;54011;50.772;7.730;2023-04-03T01:46:57;6.25;;;2.03;;
67092;SDS011;54011;50.772;7.730;2023-04-03T01:49:25;5.55;;;2.13;;
67092;SDS011;54011;50.772;7.730;2023-04-03T01:51:54;4.60;;;2.03;;
67092;SDS011;54011;50.772;7.730;2023-04-03T01:54:22;5.80;;;2.08;;
67092;SDS011;54011;50.772;7.730;2023-04-03T01:56:48;4.45;;;1.80;;
67092;SDS011;54011;50.772;7.730;2023-04-03T01:59:16;9.15;;;2.22;;
67092;SDS011;54011;50.772;7.730;2023-04-03T02:01:44;5.43;;;2.10;;
67092;SDS011;54011;50.772;7.730;2023-04-03T02:04:13;5.55;;;2.10;;
67092;SDS011;54011;50.772;7.730;2023-04-03T02:06:38;8.38;;;2.03;;
67092;SDS011;54011;50.772;7.730;2023-04-03T02:09:06;6.22;;;1.95;;
67092;SDS011;54011;50.772;7.730;2023-04-03T02:11:34;3.85;;;1.50;;
67092;SDS011;54011;50.772;7.730;2023-04-03T02:14:00;6.93;;;2.10;;
67092;SDS011;54011;50.772;7.730;2023-04-03T02:16:27;5.80;;;1.95;;
67092;SDS011;54011;50.772;7.730;2023-04-03T02:18:54;5.78;;;1.80;;
67092;SDS011;54011;50.772;7.730;2023-04-03T02:21:20;4.47;;;2.05;;
67092;SDS011;54011;50.772;7.730;2023-04-03T02:23:47;4.78;;;2.38;;
67092;SDS011;54011;50.772;7.730;2023-04-03T02:26:13;4.82;;;2.28;;
67092;SDS011;54011;50.772;7.730;2023-04-03T02:28:44;7.68;;;2.17;;
67092;SDS011;54011;50.772;7.730;2023-04-03T02:31:11;5.30;;;1.98;;
67092;SDS011;54011;50.772;7.730;2023-04-03T02:33:39;4.57;;;1.98;;
67092;SDS011;54011;50.772;7.730;2023-04-03T02:36:08;7.30;;;2.00;;
67092;SDS011;54011;50.772;7.730;2023-04-03T02:38:37;4.20;;;2.05;;
67092;SDS011;54011;50.772;7.730;2023-04-03T02:41:12;5.72;;;1.98;;
67092;SDS011;54011;50.772;7.730;2023-04-03T02:43:38;5.63;;;1.90;;
67092;SDS011;54011;50.772;7.730;2023-04-03T02:46:07;6.47;;;1.90;;
67092;SDS011;54011;50.772;7.730;2023-04-03T02:48:35;6.40;;;1.92;;
67092;SDS011;54011;50.772;7.730;2023-04-03T02:51:01;5.95;;;2.15;;
67092;SDS011;54011;50.772;7.730;2023-04-03T02:53:27;5.57;;;2.30;;
67092;SDS011;54011;50.772;7.730;2023-04-03T02:55:57;4.40;;;1.95;;
67092;SDS011;54011;50.772;7.730;2023-04-03T02:58:23;6.38;;;2.00;;
67092;SDS011;54011;50.772;7.730;2023-04-03T03:00:53;6.28;;;2.00;;
67092;SDS011;54011;50.772;7.730;2023-04-03T03:03:19;3.78;;;1.70;;
67092;SDS011;54011;50.772;7.730;2023-04-03T03:05:44;4.53;;;1.85;;
67092;SDS011;54011;50.772;7.730;2023-04-03T03:08:10;5.68;;;2.00;;
67092;SDS011;54011;50.772;7.730;2023-04-03T03:10:36;5.28;;;1.80;;
67092;SDS011;54011;50.772;7.730;2023-04-03T03:13:03;7.68;;;1.90;;
67092;SDS011;54011;50.772;7.730;2023-04-03T03:15:29;5.68;;;2.22;;
67092;SDS011;54011;50.772;7.730;2023-04-03T03:17:55;5.05;;;1.90;;
67092;SDS011;54011;50.772;7.730;2023-04-03T03:20:27;5.78;;;1.80;;
67092;SDS011;54011;50.772;7.730;2023-04-03T03:22:55;7.28;;;2.15;;
67092;SDS011;54011;50.772;7.730;2023-04-03T03:25:21;5.78;;;2.17;;
67092;SDS011;54011;50.772;7.730;2023-04-03T03:27:48;5.30;;;1.80;;
67092;SDS011;54011;50.772;7.730;2023-04-03T03:30:14;8.57;;;1.83;;
67092;SDS011;54011;50.772;7.730;2023-04-03T03:32:41;6.63;;;2.10;;
67092;SDS011;54011;50.772;7.730;2023-04-03T03:35:10;5.00;;;1.80;;
67092;SDS011;54011;50.772;7.730;2023-04-03T03:37:36;4.95;;;1.60;;
67092;SDS011;54011;50.772;7.730;2023-04-03T03:40:05;4.85;;;1.90;;
67092;SDS011;54011;50.772;7.730;2023-04-03T03:42:33;4.85;;;1.90;;
67092;SDS011;54011;50.772;7.730;2023-04-03T03:44:58;4.45;;;1.67;;
67092;SDS011;54011;50.772;7.730;2023-04-03T03:47:24;4.82;;;1.90;;
67092;SDS011;54011;50.772;7.730;2023-04-03T03:49:50;3.72;;;1.73;;
67092;SDS011;54011;50.772;7.730;2023-04-03T03:52:17;7.85;;;1.77;;
67092;SDS011;54011;50.772;7.730;2023-04-03T03:54:43;5.05;;;2.00;;
67092;SDS011;54011;50.772;7.730;2023-04-03T03:57:08;8.00;;;1.98;;
67092;SDS011;54011;50.772;7.730;2023-04-03T03:59:36;8.02;;;1.90;;
67092;SDS011;54011;50.772;7.730;2023-04-03T04:02:03;6.32;;;1.77;;
67092;SDS011;54011;50.772;7.730;2023-04-03T04:04:30;5.43;;;1.70;;
67092;SDS011;54011;50.772;7.730;2023-04-03T04:06:57;5.53;;;1.73;;
67092;SDS011;54011;50.772;7.730;2023-04-03T04:09:26;6.67;;;1.67;;
67092;SDS011;54011;50.772;7.730;2023-04-03T04:11:52;6.38;;;1.70;;
67092;SDS011;54011;50.772;7.730;2023-04-03T04:14:21;5.78;;;1.60;;
67092;SDS011;54011;50.772;7.730;2023-04-03T04:16:49;5.65;;;1.67;;
67092;SDS011;54011;50.772;7.730;2023-04-03T04:19:20;5.85;;;2.08;;
67092;SDS011;54011;50.772;7.730;2023-04-03T04:21:53;5.75;;;1.50;;
67092;SDS011;54011;50.772;7.730;2023-04-03T04:24:18;5.50;;;1.67;;
67092;SDS011;54011;50.772;7.730;2023-04-03T04:26:46;5.35;;;1.70;;
67092;SDS011;54011;50.772;7.730;2023-04-03T04:29:16;6.85;;;1.90;;
67092;SDS011;54011;50.772;7.730;2023-04-03T04:31:47;6.22;;;1.65;;
67092;SDS011;54011;50.772;7.730;2023-04-03T04:34:13;4.15;;;1.50;;
67092;SDS011;54011;50.772;7.730;2023-04-03T04:36:39;5.75;;;1.67;;
67092;SDS011;54011;50.772;7.730;2023-04-03T04:39:07;4.55;;;1.35;;
67092;SDS011;54011;50.772;7.730;2023-04-03T04:41:33;5.43;;;1.55;;
67092;SDS011;54011;50.772;7.730;2023-04-03T04:44:02;5.05;;;1.55;;
67092;SDS011;54011;50.772;7.730;2023-04-03T04:46:30;3.92;;;1.40;;
67092;SDS011;54011;50.772;7.730;2023-04-03T04:48:58;4.57;;;1.50;;
67092;SDS011;54011;50.772;7.730;2023-04-03T04:51:26;8.45;;;2.05;;
67092;SDS011;54011;50.772;7.730;2023-04-03T04:53:55;7.78;;;1.58;;
67092;SDS011;54011;50.772;7.730;2023-04-03T04:56:21;4.82;;;1.52;;
67092;SDS011;54011;50.772;7.730;2023-04-03T04:58:47;5.50;;;1.63;;
67092;SDS011;54011;50.772;7.730;2023-04-03T05:01:14;3.65;;;1.55;;
67092;SDS011;54011;50.772;7.730;2023-04-03T05:03:49;7.65;;;1.70;;
67092;SDS011;54011;50.772;7.730;2023-04-03T05:06:15;8.25;;;1.90;;
67092;SDS011;54011;50.772;7.730;2023-04-03T05:08:41;9.45;;;2.10;;
67092;SDS011;54011;50.772;7.730;2023-04-03T05:11:09;6.47;;;1.52;;
67092;SDS011;54011;50.772;7.730;2023-04-03T05:13:35;8.02;;;1.70;;
67092;SDS011;54011;50.772;7.730;2023-04-03T05:16:00;5.93;;;1.70;;
67092;SDS011;54011;50.772;7.730;2023-04-03T05:18:27;4.43;;;1.27;;
67092;SDS011;54011;50.772;7.730;2023-04-03T05:20:55;4.00;;;1.48;;
67092;SDS011;54011;50.772;7.730;2023-04-03T05:23:24;5.47;;;1.50;;
67092;SDS011;54011;50.772;7.730;2023-04-03T05:25:50;5.50;;;1.77;;
67092;SDS011;54011;50.772;7.730;2023-04-03T05:28:17;5.70;;;1.70;;
67092;SDS011;54011;50.772;7.730;2023-04-03T05:30:43;5.03;;;1.60;;
67092;SDS011;54011;50.772;7.730;2023-04-03T05:33:08;7.35;;;2.10;;
67092;SDS011;54011;50.772;7.730;2023-04-03T05:35:43;3.20;;;1.40;;
67092;SDS011;54011;50.772;7.730;2023-04-03T05:38:13;7.13;;;1.67;;
67092;SDS011;54011;50.772;7.730;2023-04-03T05:40:38;9.10;;;2.17;;
67092;SDS011;54011;50.772;7.730;2023-04-03T05:43:05;5.53;;;1.65;;
67092;SDS011;54011;50.772;7.730;2023-04-03T05:45:34;5.85;;;1.92;;
67092;SDS011;54011;50.772;7.730;2023-04-03T05:48:00;4.10;;;1.45;;
67092;SDS011;54011;50.772;7.730;2023-04-03T05:50:26;5.10;;;1.65;;
67092;SDS011;54011;50.772;7.730;2023-04-03T05:52:52;5.78;;;2.00;;
67092;SDS011;54011;50.772;7.730;2023-04-03T05:55:21;6.90;;;2.10;;
67092;SDS011;54011;50.772;7.730;2023-04-03T05:57:48;7.07;;;1.90;;
67092;SDS011;54011;50.772;7.730;2023-04-03T06:00:14;6.72;;;1.70;;
67092;SDS011;54011;50.772;7.730;2023-04-03T06:02:43;5.95;;;2.00;;
67092;SDS011;54011;50.772;7.730;2023-04-03T06:05:14;6.10;;;1.85;;
67092;SDS011;54011;50.772;7.730;2023-04-03T06:07:40;7.10;;;2.08;;
67092;SDS011;54011;50.772;7.730;2023-04-03T06:10:06;9.05;;;2.17;;
67092;SDS011;54011;50.772;7.730;2023-04-03T06:12:32;8.32;;;2.22;;
67092;SDS011;54011;50.772;7.730;2023-04-03T06:14:58;7.65;;;1.92;;
67092;SDS011;54011;50.772;7.730;2023-04-03T06:17:23;5.10;;;2.28;;
67092;SDS011;54011;50.772;7.730;2023-04-03T06:19:49;7.32;;;2.28;;
67092;SDS011;54011;50.772;7.730;2023-04-03T06:22:15;7.32;;;2.30;;
67092;SDS011;54011;50.772;7.730;2023-04-03T06:24:41;8.13;;;2.55;;
67092;SDS011;54011;50.772;7.730;2023-04-03T06:27:06;5.63;;;2.10;;
67092;SDS011;54011;50.772;7.730;2023-04-03T06:29:32;7.13;;;2.38;;
67092;SDS011;54011;50.772;7.730;2023-04-03T06:31:58;7.78;;;2.40;;
67092;SDS011;54011;50.772;7.730;2023-04-03T06:34:24;6.55;;;1.98;;
67092;SDS011;54011;50.772;7.730;2023-04-03T06:36:49;7.53;;;2.10;;
67092;SDS011;54011;50.772;7.730;2023-04-03T06:39:16;5.00;;;1.90;;
67092;SDS011;54011;50.772;7.730;2023-04-03T06:41:45;5.90;;;1.98;;
67092;SDS011;54011;50.772;7.730;2023-04-03T06:44:11;7.40;;;1.92;;
67092;SDS011;54011;50.772;7.730;2023-04-03T06:46:38;9.20;;;1.80;;
67092;SDS011;54011;50.772;7.730;2023-04-03T06:49:04;5.75;;;1.83;;
67092;SDS011;54011;50.772;7.730;2023-04-03T06:51:32;6.78;;;1.95;;
67092;SDS011;54011;50.772;7.730;2023-04-03T06:53:58;7.40;;;1.80;;
67092;SDS011;54011;50.772;7.730;2023-04-03T06:56:24;6.55;;;1.92;;
67092;SDS011;54011;50.772;7.730;2023-04-03T06:58:51;5.30;;;1.40;;
67092;SDS011;54011;50.772;7.730;2023-04-03T07:01:19;5.15;;;1.50;;
67092;SDS011;54011;50.772;7.730;2023-04-03T07:03:45;8.23;;;1.70;;
67092;SDS011;54011;50.772;7.730;2023-04-03T07:06:13;5.75;;;1.55;;
67092;SDS011;54011;50.772;7.730;2023-04-03T07:08:40;8.73;;;2.20;;
67092;SDS011;54011;50.772;7.730;2023-04-03T07:11:07;6.75;;;1.60;;
67092;SDS011;54011;50.772;7.730;2023-04-03T07:13:34;2.88;;;1.00;;
67092;SDS011;54011;50.772;7.730;2023-04-03T07:15:59;5.63;;;1.95;;
67092;SDS011;54011;50.772;7.730;2023-04-03T07:18:26;6.30;;;1.70;;
67092;SDS011;54011;50.772;7.730;2023-04-03T07:20:51;5.25;;;1.42;;
67092;SDS011;54011;50.772;7.730;2023-04-03T07:23:17;9.77;;;2.25;;
67092;SDS011;54011;50.772;7.730;2023-04-03T07:25:44;7.03;;;1.40;;
67092;SDS011;54011;50.772;7.730;2023-04-03T07:28:10;4.30;;;1.38;;
67092;SDS011;54011;50.772;7.730;2023-04-03T07:30:47;3.70;;;1.27;;
67092;SDS011;54011;50.772;7.730;2023-04-03T07:33:30;8.95;;;1.70;;
67092;SDS011;54011;50.772;7.730;2023-04-03T07:35:57;3.88;;;1.45;;
67092;SDS011;54011;50.772;7.730;2023-04-03T07:38:22;3.58;;;1.02;;
67092;SDS011;54011;50.772;7.730;2023-04-03T07:40:48;4.97;;;1.35;;
67092;SDS011;54011;50.772;7.730;2023-04-03T07:43:15;5.63;;;1.63;;
67092;SDS011;54011;50.772;7.730;2023-04-03T07:45:41;7.53;;;1.50;;
67092;SDS011;54011;50.772;7.730;2023-04-03T07:48:08;6.10;;;1.70;;
67092;SDS011;54011;50.772;7.730;2023-04-03T07:50:34;4.45;;;1.30;;
67092;SDS011;54011;50.772;7.730;2023-04-03T07:53:01;10.02;;;2.33;;
67092;SDS011;54011;50.772;7.730;2023-04-03T07:55:27;5.07;;;1.80;;
67092;SDS011;54011;50.772;7.730;2023-04-03T07:57:54;4.78;;;1.35;;
67092;SDS011;54011;50.772;7.730;2023-04-03T08:00:20;4.72;;;1.92;;
67092;SDS011;54011;50.772;7.730;2023-04-03T08:02:46;5.55;;;1.38;;
67092;SDS011;54011;50.772;7.730;2023-04-03T08:05:18;6.53;;;1.30;;
67092;SDS011;54011;50.772;7.730;2023-04-03T08:07:45;6.13;;;1.42;;
67092;SDS011;54011;50.772;7.730;2023-04-03T08:10:12;10.52;;;1.48;;
67092;SDS011;54011;50.772;7.730;2023-04-03T08:12:37;7.00;;;1.55;;
67092;SDS011;54011;50.772;7.730;2023-04-03T08:15:03;4.50;;;1.50;;
67092;SDS011;54011;50.772;7.730;2023-04-03T08:17:29;4.57;;;1.70;;
67092;SDS011;54011;50.772;7.730;2023-04-03T08:19:55;5.30;;;1.27;;
67092;SDS011;54011;50.772;7.730;2023-04-03T08:22:20;3.80;;;1.45;;
67092;SDS011;54011;50.772;7.730;2023-04-03T08:24:46;7.22;;;1.88;;
67092;SDS011;54011;50.772;7.730;2023-04-03T08:27:11;6.97;;;1.80;;
67092;SDS011;54011;50.772;7.730;2023-04-03T08:29:36;6.40;;;1.30;;
67092;SDS011;54011;50.772;7.730;2023-04-03T08:32:03;3.20;;;1.10;;
67092;SDS011;54011;50.772;7.730;2023-04-03T08:34:32;5.80;;;1.55;;
67092;SDS011;54011;50.772;7.730;2023-04-03T08:37:03;3.40;;;1.27;;
67092;SDS011;54011;50.772;7.730;2023-04-03T08:39:28;4.03;;;1.25;;
67092;SDS011;54011;50.772;7.730;2023-04-03T08:41:55;5.10;;;1.65;;
67092;SDS011;54011;50.772;7.730;2023-04-03T08:49:49;7.53;;;1.65;;
67092;SDS011;54011;50.772;7.730;2023-04-03T08:52:19;5.00;;;1.52;;
67092;SDS011;54011;50.772;7.730;2023-04-03T08:54:59;7.47;;;1.70;;
67092;SDS011;54011;50.772;7.730;2023-04-03T08:57:31;5.22;;;1.42;;
67092;SDS011;54011;50.772;7.730;2023-04-03T09:00:00;5.60;;;1.65;;
67092;SDS011;54011;50.772;7.730;2023-04-03T09:02:34;4.22;;;1.48;;
67092;SDS011;54011;50.772;7.730;2023-04-03T09:05:17;6.57;;;1.30;;
67092;SDS011;54011;50.772;7.730;2023-04-03T09:07:46;5.47;;;1.45;;
67092;SDS011;54011;50.772;7.730;2023-04-03T09:10:18;5.97;;;1.45;;
67092;SDS011;54011;50.772;7.730;2023-04-03T09:12:54;3.55;;;1.35;;
67092;SDS011;54011;50.772;7.730;2023-04-03T09:15:25;4.60;;;1.30;;
67092;SDS011;54011;50.772;7.730;2023-04-03T09:23:15;3.35;;;1.10;;
67092;SDS011;54011;50.772;7.730;2023-04-03T09:25:49;5.78;;;1.70;;
67092;SDS011;54011;50.772;7.730;2023-04-03T09:28:20;4.32;;;1.35;;
67092;SDS011;54011;50.772;7.730;2023-04-03T09:30:45;3.78;;;1.20;;
67092;SDS011;54011;50.772;7.730;2023-04-03T09:33:11;3.60;;;1.30;;
67092;SDS011;54011;50.772;7.730;2023-04-03T09:35:38;5.45;;;1.40;;
67092;SDS011;54011;50.772;7.730;2023-04-03T09:40:35;3.17;;;1.10;;
67092;SDS011;54011;50.772;7.730;2023-04-03T09:45:45;4.82;;;1.10;;
67092;SDS011;54011;50.772;7.730;2023-04-03T09:50:38;3.70;;;1.30;;
67092;SDS011;54011;50.772;7.730;2023-04-03T09:53:45;3.45;;;1.10;;
67092;SDS011;54011;50.772;7.730;2023-04-03T09:58:46;2.97;;;1.08;;
67092;SDS011;54011;50.772;7.730;2023-04-03T10:06:29;2.75;;;1.00;;
67092;SDS011;54011;50.772;7.730;2023-04-03T10:09:39;4.05;;;1.30;;
67092;SDS011;54011;50.772;7.730;2023-04-03T10:14:22;4.03;;;1.10;;
67092;SDS011;54011;50.772;7.730;2023-04-03T10:16:53;2.47;;;1.00;;
67092;SDS011;54011;50.772;7.730;2023-04-03T10:19:34;6.75;;;1.00;;
67092;SDS011;54011;50.772;7.730;2023-04-03T10:25:24;4.07;;;1.38;;
67092;SDS011;54011;50.772;7.730;2023-04-03T10:28:00;3.13;;;1.10;;
67092;SDS011;54011;50.772;7.730;2023-04-03T10:30:34;2.20;;;0.93;;
67092;SDS011;54011;50.772;7.730;2023-04-03T10:36:06;4.35;;;1.10;;
67092;SDS011;54011;50.772;7.730;2023-04-03T10:41:31;3.40;;;1.23;;
67092;SDS011;54011;50.772;7.730;2023-04-03T10:46:45;4.03;;;0.90;;
67092;SDS011;54011;50.772;7.730;2023-04-03T10:49:31;4.95;;;1.00;;
67092;SDS011;54011;50.772;7.730;2023-04-03T10:52:19;5.25;;;1.05;;
67092;SDS011;54011;50.772;7.730;2023-04-03T10:55:02;3.50;;;0.90;;
67092;SDS011;54011;50.772;7.730;2023-04-03T10:57:32;2.95;;;0.90;;
67092;SDS011;54011;50.772;7.730;2023-04-03T10:59:59;2.45;;;1.05;;
67092;SDS011;54011;50.772;7.730;2023-04-03T11:02:47;3.38;;;1.05;;
67092;SDS011;54011;50.772;7.730;2023-04-03T11:05:39;3.88;;;1.02;;
67092;SDS011;54011;50.772;7.730;2023-04-03T11:08:02;3.78;;;1.23;;
67092;SDS011;54011;50.772;7.730;2023-04-03T11:13:11;2.92;;;1.05;;
67092;SDS011;54011;50.772;7.730;2023-04-03T11:15:57;3.13;;;1.02;;
67092;SDS011;54011;50.772;7.730;2023-04-03T11:18:27;3.25;;;1.10;;
67092;SDS011;54011;50.772;7.730;2023-04-03T11:21:09;3.53;;;1.25;;
67092;SDS011;54011;50.772;7.730;2023-04-03T11:23:47;3.97;;;1.00;;
67092;SDS011;54011;50.772;7.730;2023-04-03T11:26:13;2.92;;;1.00;;
67092;SDS011;54011;50.772;7.730;2023-04-03T11:28:41;3.42;;;1.17;;
67092;SDS011;54011;50.772;7.730;2023-04-03T11:33:49;3.20;;;1.00;;
67092;SDS011;54011;50.772;7.730;2023-04-03T11:36:29;2.95;;;1.00;;
67092;SDS011;54011;50.772;7.730;2023-04-03T11:39:07;3.30;;;1.20;;
67092;SDS011;54011;50.772;7.730;2023-04-03T11:41:42;3.90;;;1.20;;
67092;SDS011;54011;50.772;7.730;2023-04-03T11:47:03;2.80;;;1.17;;
67092;SDS011;54011;50.772;7.730;2023-04-03T11:57:46;3.97;;;1.30;;
67092;SDS011;54011;50.772;7.730;2023-04-03T12:05:53;3.55;;;1.10;;
67092;SDS011;54011;50.772;7.730;2023-04-03T12:08:52;5.72;;;1.58;;
67092;SDS011;54011;50.772;7.730;2023-04-03T12:11:29;3.75;;;1.25;;
67092;SDS011;54011;50.772;7.730;2023-04-03T12:16:29;4.97;;;1.40;;
67092;SDS011;54011;50.772;7.730;2023-04-03T12:19:02;2.67;;;1.20;;
67092;SDS011;54011;50.772;7.730;2023-04-03T12:43:02;5.00;;;1.65;;
67092;SDS011;54011;50.772;7.730;2023-04-03T12:48:46;4.43;;;1.27;;
67092;SDS011;54011;50.772;7.730;2023-04-03T12:51:16;5.93;;;1.30;;
67092;SDS011;54011;50.772;7.730;2023-04-03T12:53:46;3.33;;;1.20;;
67092;SDS011;54011;50.772;7.730;2023-04-03T12:58:52;4.00;;;1.20;;
67092;SDS011;54011;50.772;7.730;2023-04-03T13:01:24;2.67;;;1.00;;
67092;SDS011;54011;50.772;7.730;2023-04-03T13:03:55;2.67;;;0.90;;
67092;SDS011;54011;50.772;7.730;2023-04-03T13:06:30;4.60;;;1.23;;
67092;SDS011;54011;50.772;7.730;2023-04-03T13:09:00;4.90;;;1.50;;
67092;SDS011;54011;50.772;7.730;2023-04-03T13:11:33;3.13;;;1.15;;
67092;SDS011;54011;50.772;7.730;2023-04-03T13:14:04;4.75;;;1.27;;
67092;SDS011;54011;50.772;7.730;2023-04-03T13:16:39;3.85;;;1.20;;
67092;SDS011;54011;50.772;7.730;2023-04-03T13:19:14;4.30;;;1.35;;
67092;SDS011;54011;50.772;7.730;2023-04-03T13:21:41;4.90;;;1.33;;
67092;SDS011;54011;50.772;7.730;2023-04-03T13:24:09;3.70;;;1.42;;
67092;SDS011;54011;50.772;7.730;2023-04-03T13:26:35;3.08;;;1.00;;
67092;SDS011;54011;50.772;7.730;2023-04-03T13:29:05;4.07;;;1.15;;
67092;SDS011;54011;50.772;7.730;2023-04-03T13:31:40;4.97;;;1.40;;
67092;SDS011;54011;50.772;7.730;2023-04-03T13:36:44;3.10;;;0.95;;
67092;SDS011;54011;50.772;7.730;2023-04-03T13:39:22;3.05;;;1.20;;
67092;SDS011;54011;50.772;7.730;2023-04-03T13:41:54;4.05;;;1.20;;
67092;SDS011;54011;50.772;7.730;2023-04-03T13:46:48;6.35;;;1.38;;
67092;SDS011;54011;50.772;7.730;2023-04-03T13:49:32;7.30;;;1.42;;
67092;SDS011;54011;50.772;7.730;2023-04-03T13:52:02;3.73;;;1.20;;
67092;SDS011;54011;50.772;7.730;2023-04-03T13:54:51;5.40;;;1.33;;
67092;SDS011;54011;50.772;7.730;2023-04-03T13:57:20;5.00;;;1.38;;
67092;SDS011;54011;50.772;7.730;2023-04-03T13:59:46;2.90;;;1.00;;
67092;SDS011;54011;50.772;7.730;2023-04-03T14:04:51;7.40;;;1.30;;
67092;SDS011;54011;50.772;7.730;2023-04-03T14:07:23;4.93;;;1.25;;
67092;SDS011;54011;50.772;7.730;2023-04-03T14:09:50;4.03;;;0.90;;
67092;SDS011;54011;50.772;7.730;2023-04-03T14:12:18;4.55;;;1.10;;
67092;SDS011;54011;50.772;7.730;2023-04-03T14:14:59;6.22;;;1.33;;
67092;SDS011;54011;50.772;7.730;2023-04-03T14:17:26;3.55;;;1.20;;
67092;SDS011;54011;50.772;7.730;2023-04-03T14:19:53;4.82;;;1.20;;
67092;SDS011;54011;50.772;7.730;2023-04-03T14:22:21;3.58;;;1.20;;
67092;SDS011;54011;50.772;7.730;2023-04-03T14:24:57;3.58;;;1.08;;
67092;SDS011;54011;50.772;7.730;2023-04-03T14:27:27;2.85;;;1.10;;
67092;SDS011;54011;50.772;7.730;2023-04-03T14:29:56;4.05;;;1.30;;
67092;SDS011;54011;50.772;7.730;2023-04-03T14:32:23;3.10;;;1.08;;
67092;SDS011;54011;50.772;7.730;2023-04-03T14:34:51;3.25;;;1.10;;
67092;SDS011;54011;50.772;7.730;2023-04-03T14:37:24;4.47;;;1.10;;
67092;SDS011;54011;50.772;7.730;2023-04-03T14:39:53;3.95;;;1.20;;
67092;SDS011;54011;50.772;7.730;2023-04-03T14:42:21;4.63;;;1.10;;
67092;SDS011;54011;50.772;7.730;2023-04-03T14:44:52;2.47;;;1.00;;
67092;SDS011;54011;50.772;7.730;2023-04-03T14:47:19;3.25;;;1.00;;
67092;SDS011;54011;50.772;7.730;2023-04-03T14:49:47;3.67;;;1.25;;
67092;SDS011;54011;50.772;7.730;2023-04-03T14:52:23;7.57;;;1.30;;
67092;SDS011;54011;50.772;7.730;2023-04-03T14:54:49;3.83;;;1.20;;
67092;SDS011;54011;50.772;7.730;2023-04-03T14:57:15;4.80;;;1.23;;
67092;SDS011;54011;50.772;7.730;2023-04-03T14:59:42;3.83;;;1.20;;
67092;SDS011;54011;50.772;7.730;2023-04-03T15:02:54;3.97;;;1.10;;
67092;SDS011;54011;50.772;7.730;2023-04-03T15:05:00;3.60;;;1.20;;
67092;SDS011;54011;50.772;7.730;2023-04-03T15:07:29;4.72;;;1.10;;
67092;SDS011;54011;50.772;7.730;2023-04-03T15:09:57;3.95;;;1.02;;
67092;SDS011;54011;50.772;7.730;2023-04-03T15:12:23;4.93;;;1.15;;
67092;SDS011;54011;50.772;7.730;2023-04-03T15:14:49;4.22;;;1.10;;
67092;SDS011;54011;50.772;7.730;2023-04-03T15:17:47;3.17;;;1.15;;
67092;SDS011;54011;50.772;7.730;2023-04-03T15:21:02;4.10;;;1.23;;
67092;SDS011;54011;50.772;7.730;2023-04-03T15:23:29;2.97;;;1.02;;
67092;SDS011;54011;50.772;7.730;2023-04-03T15:26:05;3.75;;;1.00;;
67092;SDS011;54011;50.772;7.730;2023-04-03T15:28:35;6.30;;;1.30;;
67092;SDS011;54011;50.772;7.730;2023-04-03T15:31:03;3.42;;;1.10;;
67092;SDS011;54011;50.772;7.730;2023-04-03T15:33:36;5.00;;;1.38;;
67092;SDS011;54011;50.772;7.730;2023-04-03T15:36:27;3.53;;;1.05;;
67092;SDS011;54011;50.772;7.730;2023-04-03T15:38:55;2.75;;;1.02;;
67092;SDS011;54011;50.772;7.730;2023-04-03T15:41:21;4.20;;;1.40;;
67092;SDS011;54011;50.772;7.730;2023-04-03T15:44:02;4.95;;;1.25;;
67092;SDS011;54011;50.772;7.730;2023-04-03T15:46:39;3.63;;;1.20;;
67092;SDS011;54011;50.772;7.730;2023-04-03T15:49:05;7.22;;;1.30;;
67092;SDS011;54011;50.772;7.730;2023-04-03T15:51:37;3.40;;;1.13;;
67092;SDS011;54011;50.772;7.730;2023-04-03T15:54:03;3.58;;;1.10;;
67092;SDS011;54011;50.772;7.730;2023-04-03T15:56:29;2.97;;;1.10;;
67092;SDS011;54011;50.772;7.730;2023-04-03T15:58:56;3.00;;;1.30;;
67092;SDS011;54011;50.772;7.730;2023-04-03T16:01:21;3.90;;;1.42;;
67092;SDS011;54011;50.772;7.730;2023-04-03T16:03:47;4.57;;;1.42;;
67092;SDS011;54011;50.772;7.730;2023-04-03T16:06:14;4.13;;;1.15;;
67092;SDS011;54011;50.772;7.730;2023-04-03T16:08:41;3.33;;;1.20;;
67092;SDS011;54011;50.772;7.730;2023-04-03T16:11:07;3.10;;;1.20;;
67092;SDS011;54011;50.772;7.730;2023-04-03T16:13:34;2.67;;;1.00;;
67092;SDS011;54011;50.772;7.730;2023-04-03T16:15:59;4.38;;;1.15;;
67092;SDS011;54011;50.772;7.730;2023-04-03T16:18:27;4.55;;;1.27;;
67092;SDS011;54011;50.772;7.730;2023-04-03T16:20:53;3.92;;;1.50;;
67092;SDS011;54011;50.772;7.730;2023-04-03T16:23:19;3.47;;;1.20;;
67092;SDS011;54011;50.772;7.730;2023-04-03T16:25:48;3.47;;;1.20;;
67092;SDS011;54011;50.772;7.730;2023-04-03T16:28:18;4.32;;;1.17;;
67092;SDS011;54011;50.772;7.730;2023-04-03T16:30:45;3.65;;;1.15;;
67092;SDS011;54011;50.772;7.730;2023-04-03T16:33:12;4.40;;;1.30;;
67092;SDS011;54011;50.772;7.730;2023-04-03T16:35:38;7.10;;;1.27;;
67092;SDS011;54011;50.772;7.730;2023-04-03T16:38:04;4.43;;;1.30;;
67092;SDS011;54011;50.772;7.730;2023-04-03T16:40:30;4.07;;;1.35;;
67092;SDS011;54011;50.772;7.730;2023-04-03T16:42:56;4.57;;;1.30;;
67092;SDS011;54011;50.772;7.730;2023-04-03T16:45:21;3.92;;;1.17;;
67092;SDS011;54011;50.772;7.730;2023-04-03T16:47:47;2.88;;;1.00;;